sensor_id;sensor_type;location;lat;lon;timestamp;temperature;humidity
17813;DHT22;9030;50.792;8.320;2024-03-23T00:55:57;5.20;99.90
17813;DHT22;9030;50.792;8.320;2024-03-23T00:58:23;5.20;99.90
17813;DHT22;9030;50.792;8.320;2024-03-23T01:00:50;5.20;99.90
17813;DHT22;9030;50.792;8.320;2024-03-23T01:03:15;5.20;99.90
17813;DHT22;9030;50.792;8.320;2024-03-23T01:05:42;5.30;99.90
17813;DHT22;9030;50.792;8.320;2024-03-23T01:08:07;5.30;99.90
17813;DHT22;9030;50.792;8.320;2024-03-23T01:10:34;5.40;99.90
17813;DHT22;9030;50.792;8.320;2024-03-23T01:13:01;5.40;99.90
17813;DHT22;9030;50.792;8.320;2024-03-23T01:15:28;5.50;99.90
17813;DHT22;9030;50.792;8.320;2024-03-23T01:17:53;5.50;99.90
17813;DHT22;9030;50.792;8.320;2024-03-23T01:20:20;5.60;99.90
17813;DHT22;9030;50.792;8.320;2024-03-23T01:22:46;5.60;99.90
17813;DHT22;9030;50.792;8.320;2024-03-23T01:25:12;5.60;99.90
17813;DHT22;9030;50.792;8.320;2024-03-23T01:27:38;5.60;99.90
17813;DHT22;9030;50.792;8.320;2024-03-23T01:30:07;5.70;99.90
17813;DHT22;9030;50.792;8.320;2024-03-23T01:32:33;5.70;99.90
17813;DHT22;9030;50.792;8.320;2024-03-23T01:34:59;5.60;99.90
17813;DHT22;9030;50.792;8.320;2024-03-23T01:37:25;5.60;99.90
17813;DHT22;9030;50.792;8.320;2024-03-23T01:39:51;5.60;99.90
17813;DHT22;9030;50.792;8.320;2024-03-23T01:42:17;5.70;99.90
17813;DHT22;9030;50.792;8.320;2024-03-23T01:44:44;5.80;99.90
17813;DHT22;9030;50.792;8.320;2024-03-23T01:47:11;5.70;99.90
17813;DHT22;9030;50.792;8.320;2024-03-23T01:49:37;5.70;99.90
17813;DHT22;9030;50.792;8.320;2024-03-23T01:52:03;5.70;99.90
17813;DHT22;9030;50.792;8.320;2024-03-23T01:54:30;5.70;99.90
17813;DHT22;9030;50.792;8.320;2024-03-23T01:56:56;5.70;99.90
17813;DHT22;9030;50.792;8.320;2024-03-23T01:59:23;5.70;99.90
17813;DHT22;9030;50.792;8.320;2024-03-23T02:01:49;5.60;99.90
17813;DHT22;9030;50.792;8.320;2024-03-23T02:04:17;5.70;99.90
17813;DHT22;9030;50.792;8.320;2024-03-23T02:06:42;5.70;99.90
17813;DHT22;9030;50.792;8.320;2024-03-23T02:09:09;5.70;99.90
17813;DHT22;9030;50.792;8.320;2024-03-23T02:11:35;5.70;99.90
17813;DHT22;9030;50.792;8.320;2024-03-23T02:14:01;5.80;99.90
17813;DHT22;9030;50.792;8.320;2024-03-23T02:16:27;5.80;99.90
17813;DHT22;9030;50.792;8.320;2024-03-23T02:18:54;5.80;99.90
17813;DHT22;9030;50.792;8.320;2024-03-23T02:21:20;5.80;99.90
17813;DHT22;9030;50.792;8.320;2024-03-23T02:23:48;5.80;99.90
17813;DHT22;9030;50.792;8.320;2024-03-23T02:26:14;5.80;99.90
17813;DHT22;9030;50.792;8.320;2024-03-23T02:28:42;5.80;99.90
17813;DHT22;9030;50.792;8.320;2024-03-23T02:31:07;5.90;99.90
17813;DHT22;9030;50.792;8.320;2024-03-23T02:33:34;5.90;99.90
17813;DHT22;9030;50.792;8.320;2024-03-23T02:36:04;6.00;99.90
17813;DHT22;9030;50.792;8.320;2024-03-23T02:38:30;6.00;99.90
17813;DHT22;9030;50.792;8.320;2024-03-23T02:41:02;5.90;99.90
17813;DHT22;9030;50.792;8.320;2024-03-23T02:43:29;5.80;99.90
17813;DHT22;9030;50.792;8.320;2024-03-23T02:45:55;5.80;99.90
17813;DHT22;9030;50.792;8.320;2024-03-23T02:48:21;5.80;99.90
17813;DHT22;9030;50.792;8.320;2024-03-23T02:50:47;5.90;99.90
17813;DHT22;9030;50.792;8.320;2024-03-23T02:53:13;6.00;99.90
17813;DHT22;9030;50.792;8.320;2024-03-23T02:55:39;6.00;99.90
17813;DHT22;9030;50.792;8.320;2024-03-23T02:58:07;6.00;99.90
17813;DHT22;9030;50.792;8.320;2024-03-23T03:00:32;6.10;99.90
17813;DHT22;9030;50.792;8.320;2024-03-23T03:02:59;6.10;99.90
17813;DHT22;9030;50.792;8.320;2024-03-23T03:05:25;6.20;99.90
17813;DHT22;9030;50.792;8.320;2024-03-23T03:07:51;6.20;99.90
17813;DHT22;9030;50.792;8.320;2024-03-23T03:10:17;6.10;99.90
17813;DHT22;9030;50.792;8.320;2024-03-23T03:12:43;6.10;99.90
17813;DHT22;9030;50.792;8.320;2024-03-23T03:15:10;6.20;99.90
17813;DHT22;9030;50.792;8.320;2024-03-23T03:17:38;6.10;99.90
17813;DHT22;9030;50.792;8.320;2024-03-23T03:20:04;6.10;99.90
17813;DHT22;9030;50.792;8.320;2024-03-23T03:22:31;6.10;99.90
17813;DHT22;9030;50.792;8.320;2024-03-23T03:24:57;6.10;99.90
17813;DHT22;9030;50.792;8.320;2024-03-23T03:27:25;6.10;99.90
17813;DHT22;9030;50.792;8.320;2024-03-23T03:29:51;6.10;99.90
17813;DHT22;9030;50.792;8.320;2024-03-23T03:32:19;6.10;99.90
17813;DHT22;9030;50.792;8.320;2024-03-23T03:34:44;6.10;99.90
17813;DHT22;9030;50.792;8.320;2024-03-23T03:37:11;6.00;99.90
17813;DHT22;9030;50.792;8.320;2024-03-23T03:39:36;6.00;99.90
17813;DHT22;9030;50.792;8.320;2024-03-23T03:42:03;6.00;99.90
17813;DHT22;9030;50.792;8.320;2024-03-23T03:44:32;5.90;99.90
17813;DHT22;9030;50.792;8.320;2024-03-23T03:46:58;5.90;99.90
17813;DHT22;9030;50.792;8.320;2024-03-23T03:49:25;5.70;99.90
17813;DHT22;9030;50.792;8.320;2024-03-23T03:51:52;5.60;99.90
17813;DHT22;9030;50.792;8.320;2024-03-23T03:54:18;5.50;99.90
17813;DHT22;9030;50.792;8.320;2024-03-23T03:56:44;5.40;99.90
17813;DHT22;9030;50.792;8.320;2024-03-23T03:59:10;5.40;99.90
17813;DHT22;9030;50.792;8.320;2024-03-23T04:01:36;5.40;99.90
17813;DHT22;9030;50.792;8.320;2024-03-23T04:04:02;5.40;99.90
17813;DHT22;9030;50.792;8.320;2024-03-23T04:06:30;5.40;99.90
17813;DHT22;9030;50.792;8.320;2024-03-23T04:08:58;5.30;99.90
17813;DHT22;9030;50.792;8.320;2024-03-23T04:11:23;5.30;99.90
17813;DHT22;9030;50.792;8.320;2024-03-23T04:13:52;5.20;99.90
17813;DHT22;9030;50.792;8.320;2024-03-23T04:16:43;5.20;99.90
17813;DHT22;9030;50.792;8.320;2024-03-23T04:19:10;5.20;99.90
17813;DHT22;9030;50.792;8.320;2024-03-23T04:21:37;5.20;99.90
17813;DHT22;9030;50.792;8.320;2024-03-23T04:24:04;5.10;99.90
17813;DHT22;9030;50.792;8.320;2024-03-23T04:26:30;5.10;99.90
17813;DHT22;9030;50.792;8.320;2024-03-23T04:28:57;5.10;99.90
17813;DHT22;9030;50.792;8.320;2024-03-23T04:31:22;5.00;99.90
17813;DHT22;9030;50.792;8.320;2024-03-23T04:33:49;5.00;99.90
17813;DHT22;9030;50.792;8.320;2024-03-23T04:36:14;5.00;99.90
17813;DHT22;9030;50.792;8.320;2024-03-23T04:38:43;5.00;99.90
17813;DHT22;9030;50.792;8.320;2024-03-23T04:41:11;5.00;99.90
17813;DHT22;9030;50.792;8.320;2024-03-23T04:43:37;4.80;99.90
17813;DHT22;9030;50.792;8.320;2024-03-23T04:46:04;4.60;99.90
17813;DHT22;9030;50.792;8.320;2024-03-23T04:48:31;4.50;99.90
17813;DHT22;9030;50.792;8.320;2024-03-23T04:50:58;4.50;99.90
17813;DHT22;9030;50.792;8.320;2024-03-23T04:53:24;4.40;99.90
17813;DHT22;9030;50.792;8.320;2024-03-23T04:55:55;4.50;99.90
17813;DHT22;9030;50.792;8.320;2024-03-23T04:58:22;4.40;99.90
17813;DHT22;9030;50.792;8.320;2024-03-23T05:00:52;4.40;99.90
17813;DHT22;9030;50.792;8.320;2024-03-23T05:03:19;4.30;99.90
17813;DHT22;9030;50.792;8.320;2024-03-23T05:05:46;4.30;99.90
17813;DHT22;9030;50.792;8.320;2024-03-23T05:08:12;4.30;99.90
17813;DHT22;9030;50.792;8.320;2024-03-23T05:10:39;4.30;99.90
17813;DHT22;9030;50.792;8.320;2024-03-23T05:13:06;4.30;99.90
17813;DHT22;9030;50.792;8.320;2024-03-23T05:15:32;4.30;99.90
17813;DHT22;9030;50.792;8.320;2024-03-23T05:17:58;4.10;99.90
17813;DHT22;9030;50.792;8.320;2024-03-23T05:20:25;4.00;99.90
17813;DHT22;9030;50.792;8.320;2024-03-23T05:22:50;4.00;99.90
17813;DHT22;9030;50.792;8.320;2024-03-23T05:25:17;3.90;99.90
17813;DHT22;9030;50.792;8.320;2024-03-23T05:27:43;3.90;99.90
17813;DHT22;9030;50.792;8.320;2024-03-23T05:30:11;3.80;99.90
17813;DHT22;9030;50.792;8.320;2024-03-23T05:32:37;3.80;99.90
17813;DHT22;9030;50.792;8.320;2024-03-23T05:35:06;3.80;99.90
17813;DHT22;9030;50.792;8.320;2024-03-23T05:37:32;3.70;99.90
17813;DHT22;9030;50.792;8.320;2024-03-23T05:39:59;3.60;99.90
17813;DHT22;9030;50.792;8.320;2024-03-23T05:42:25;3.60;99.90
17813;DHT22;9030;50.792;8.320;2024-03-23T05:44:52;3.60;99.90
17813;DHT22;9030;50.792;8.320;2024-03-23T05:47:19;3.50;99.90
17813;DHT22;9030;50.792;8.320;2024-03-23T05:49:46;3.50;99.90
17813;DHT22;9030;50.792;8.320;2024-03-23T05:52:12;3.60;99.90
17813;DHT22;9030;50.792;8.320;2024-03-23T05:54:38;3.60;99.90
17813;DHT22;9030;50.792;8.320;2024-03-23T05:57:04;3.60;99.90
17813;DHT22;9030;50.792;8.320;2024-03-23T05:59:32;3.60;99.90
17813;DHT22;9030;50.792;8.320;2024-03-23T06:01:58;3.50;99.90
17813;DHT22;9030;50.792;8.320;2024-03-23T06:04:26;3.50;99.90
17813;DHT22;9030;50.792;8.320;2024-03-23T06:06:52;3.50;99.90
17813;DHT22;9030;50.792;8.320;2024-03-23T06:09:18;3.50;99.90
17813;DHT22;9030;50.792;8.320;2024-03-23T06:11:45;3.50;99.90
17813;DHT22;9030;50.792;8.320;2024-03-23T06:14:11;3.50;99.90
17813;DHT22;9030;50.792;8.320;2024-03-23T06:16:37;3.50;99.90
17813;DHT22;9030;50.792;8.320;2024-03-23T06:19:03;3.50;99.90
17813;DHT22;9030;50.792;8.320;2024-03-23T06:21:33;3.50;99.90
17813;DHT22;9030;50.792;8.320;2024-03-23T06:24:00;3.50;99.90
17813;DHT22;9030;50.792;8.320;2024-03-23T06:26:25;3.60;99.90
17813;DHT22;9030;50.792;8.320;2024-03-23T06:28:52;3.50;99.90
17813;DHT22;9030;50.792;8.320;2024-03-23T06:31:18;3.60;99.90
17813;DHT22;9030;50.792;8.320;2024-03-23T06:33:44;3.60;99.90
17813;DHT22;9030;50.792;8.320;2024-03-23T06:36:10;3.60;99.90
17813;DHT22;9030;50.792;8.320;2024-03-23T06:38:38;3.70;99.90
17813;DHT22;9030;50.792;8.320;2024-03-23T06:41:04;3.80;99.90
17813;DHT22;9030;50.792;8.320;2024-03-23T06:43:31;3.80;99.90
17813;DHT22;9030;50.792;8.320;2024-03-23T06:45:57;3.80;99.90
17813;DHT22;9030;50.792;8.320;2024-03-23T06:48:24;3.80;99.90
17813;DHT22;9030;50.792;8.320;2024-03-23T06:50:49;3.70;99.90
17813;DHT22;9030;50.792;8.320;2024-03-23T06:53:16;3.80;99.90
17813;DHT22;9030;50.792;8.320;2024-03-23T06:55:50;3.80;99.90
17813;DHT22;9030;50.792;8.320;2024-03-23T06:58:17;3.70;99.90
17813;DHT22;9030;50.792;8.320;2024-03-23T07:00:43;3.60;99.90
17813;DHT22;9030;50.792;8.320;2024-03-23T07:03:09;3.70;99.90
17813;DHT22;9030;50.792;8.320;2024-03-23T07:05:35;3.80;99.90
17813;DHT22;9030;50.792;8.320;2024-03-23T07:08:02;3.90;99.90
17813;DHT22;9030;50.792;8.320;2024-03-23T07:10:27;4.00;99.90
17813;DHT22;9030;50.792;8.320;2024-03-23T07:12:55;4.00;99.90
17813;DHT22;9030;50.792;8.320;2024-03-23T07:15:21;4.00;99.90
17813;DHT22;9030;50.792;8.320;2024-03-23T07:17:47;4.30;99.90
17813;DHT22;9030;50.792;8.320;2024-03-23T07:20:13;4.40;99.90
17813;DHT22;9030;50.792;8.320;2024-03-23T07:22:40;4.50;99.90
17813;DHT22;9030;50.792;8.320;2024-03-23T07:25:06;4.60;99.90
17813;DHT22;9030;50.792;8.320;2024-03-23T07:27:33;4.60;99.90
17813;DHT22;9030;50.792;8.320;2024-03-23T07:30:00;4.50;99.90
17813;DHT22;9030;50.792;8.320;2024-03-23T07:32:27;4.30;99.90
17813;DHT22;9030;50.792;8.320;2024-03-23T07:34:53;4.40;99.90
17813;DHT22;9030;50.792;8.320;2024-03-23T07:37:19;4.40;99.90
17813;DHT22;9030;50.792;8.320;2024-03-23T07:39:45;4.40;99.90
17813;DHT22;9030;50.792;8.320;2024-03-23T07:42:11;4.40;99.90
17813;DHT22;9030;50.792;8.320;2024-03-23T07:44:37;4.30;99.90
17813;DHT22;9030;50.792;8.320;2024-03-23T07:47:05;4.40;99.90
17813;DHT22;9030;50.792;8.320;2024-03-23T07:49:31;4.50;99.90
17813;DHT22;9030;50.792;8.320;2024-03-23T07:51:57;4.50;99.90
17813;DHT22;9030;50.792;8.320;2024-03-23T07:54:23;4.40;99.90
17813;DHT22;9030;50.792;8.320;2024-03-23T07:56:50;4.50;99.90
17813;DHT22;9030;50.792;8.320;2024-03-23T07:59:15;4.50;99.90
17813;DHT22;9030;50.792;8.320;2024-03-23T08:01:44;4.50;99.90
17813;DHT22;9030;50.792;8.320;2024-03-23T08:04:11;4.50;99.90
17813;DHT22;9030;50.792;8.320;2024-03-23T08:06:38;4.40;99.90
17813;DHT22;9030;50.792;8.320;2024-03-23T08:09:04;4.40;99.90
17813;DHT22;9030;50.792;8.320;2024-03-23T08:11:32;4.40;99.90
17813;DHT22;9030;50.792;8.320;2024-03-23T08:14:00;4.60;99.90
17813;DHT22;9030;50.792;8.320;2024-03-23T08:16:27;4.80;99.90
17813;DHT22;9030;50.792;8.320;2024-03-23T08:18:52;4.90;99.90
17813;DHT22;9030;50.792;8.320;2024-03-23T08:21:22;5.10;99.90
17813;DHT22;9030;50.792;8.320;2024-03-23T08:23:47;5.30;99.90
17813;DHT22;9030;50.792;8.320;2024-03-23T08:26:16;5.40;99.90
17813;DHT22;9030;50.792;8.320;2024-03-23T08:28:43;5.40;99.90
17813;DHT22;9030;50.792;8.320;2024-03-23T08:31:10;5.30;99.90
17813;DHT22;9030;50.792;8.320;2024-03-23T08:33:37;5.30;99.90
17813;DHT22;9030;50.792;8.320;2024-03-23T08:36:05;5.30;99.90
17813;DHT22;9030;50.792;8.320;2024-03-23T08:38:33;5.40;99.90
17813;DHT22;9030;50.792;8.320;2024-03-23T08:41:01;5.60;99.90
17813;DHT22;9030;50.792;8.320;2024-03-23T08:43:28;5.80;99.90
17813;DHT22;9030;50.792;8.320;2024-03-23T08:46:03;5.90;99.90
17813;DHT22;9030;50.792;8.320;2024-03-23T08:48:29;5.80;99.90
17813;DHT22;9030;50.792;8.320;2024-03-23T08:51:00;5.90;99.90
17813;DHT22;9030;50.792;8.320;2024-03-23T08:53:27;6.20;99.90
17813;DHT22;9030;50.792;8.320;2024-03-23T08:55:55;6.20;99.90
17813;DHT22;9030;50.792;8.320;2024-03-23T08:58:22;6.50;99.90
17813;DHT22;9030;50.792;8.320;2024-03-23T09:00:49;6.20;99.90
17813;DHT22;9030;50.792;8.320;2024-03-23T09:03:15;6.60;99.90
17813;DHT22;9030;50.792;8.320;2024-03-23T09:05:42;6.90;99.90
17813;DHT22;9030;50.792;8.320;2024-03-23T09:08:07;7.50;99.90
17813;DHT22;9030;50.792;8.320;2024-03-23T09:10:37;7.70;99.90
17813;DHT22;9030;50.792;8.320;2024-03-23T09:13:05;7.60;99.90
17813;DHT22;9030;50.792;8.320;2024-03-23T09:15:32;7.30;99.90
17813;DHT22;9030;50.792;8.320;2024-03-23T09:17:59;7.50;99.90
17813;DHT22;9030;50.792;8.320;2024-03-23T09:20:26;7.90;99.90
17813;DHT22;9030;50.792;8.320;2024-03-23T09:22:51;7.70;99.90
17813;DHT22;9030;50.792;8.320;2024-03-23T09:25:18;7.80;99.90
17813;DHT22;9030;50.792;8.320;2024-03-23T09:27:45;8.00;99.90
17813;DHT22;9030;50.792;8.320;2024-03-23T09:30:14;7.70;99.90
17813;DHT22;9030;50.792;8.320;2024-03-23T09:32:40;8.20;99.90
17813;DHT22;9030;50.792;8.320;2024-03-23T09:35:07;8.60;99.90
17813;DHT22;9030;50.792;8.320;2024-03-23T09:37:33;8.30;99.90
17813;DHT22;9030;50.792;8.320;2024-03-23T09:40:00;8.70;99.90
17813;DHT22;9030;50.792;8.320;2024-03-23T09:42:25;9.50;99.90
17813;DHT22;9030;50.792;8.320;2024-03-23T09:44:52;9.20;99.90
17813;DHT22;9030;50.792;8.320;2024-03-23T09:47:19;9.50;99.90
17813;DHT22;9030;50.792;8.320;2024-03-23T09:49:46;8.70;99.90
17813;DHT22;9030;50.792;8.320;2024-03-23T09:52:12;8.40;99.90
17813;DHT22;9030;50.792;8.320;2024-03-23T09:54:39;8.80;99.90
17813;DHT22;9030;50.792;8.320;2024-03-23T09:57:05;9.10;99.90
17813;DHT22;9030;50.792;8.320;2024-03-23T09:59:33;9.80;99.90
17813;DHT22;9030;50.792;8.320;2024-03-23T10:02:00;10.20;99.90
17813;DHT22;9030;50.792;8.320;2024-03-23T10:04:37;10.10;99.90
17813;DHT22;9030;50.792;8.320;2024-03-23T10:07:11;10.20;99.90
17813;DHT22;9030;50.792;8.320;2024-03-23T10:09:38;10.00;99.90
17813;DHT22;9030;50.792;8.320;2024-03-23T10:12:09;10.00;99.90
17813;DHT22;9030;50.792;8.320;2024-03-23T10:14:35;9.00;99.90
17813;DHT22;9030;50.792;8.320;2024-03-23T10:17:12;8.60;99.90
17813;DHT22;9030;50.792;8.320;2024-03-23T10:19:41;8.30;99.90
17813;DHT22;9030;50.792;8.320;2024-03-23T10:22:09;8.00;99.90
17813;DHT22;9030;50.792;8.320;2024-03-23T10:24:35;7.90;99.90
17813;DHT22;9030;50.792;8.320;2024-03-23T10:27:01;7.80;99.90
17813;DHT22;9030;50.792;8.320;2024-03-23T10:29:28;7.90;99.90
17813;DHT22;9030;50.792;8.320;2024-03-23T10:31:53;7.90;99.90
17813;DHT22;9030;50.792;8.320;2024-03-23T10:34:25;7.90;99.90
17813;DHT22;9030;50.792;8.320;2024-03-23T10:36:53;8.00;99.90
17813;DHT22;9030;50.792;8.320;2024-03-23T10:39:20;8.70;99.90
17813;DHT22;9030;50.792;8.320;2024-03-23T10:41:49;9.30;99.90
17813;DHT22;9030;50.792;8.320;2024-03-23T10:44:17;10.20;99.90
17813;DHT22;9030;50.792;8.320;2024-03-23T10:46:43;9.90;99.90
17813;DHT22;9030;50.792;8.320;2024-03-23T10:49:10;8.70;99.90
17813;DHT22;9030;50.792;8.320;2024-03-23T10:51:37;8.40;99.90
17813;DHT22;9030;50.792;8.320;2024-03-23T10:54:06;8.30;99.90
17813;DHT22;9030;50.792;8.320;2024-03-23T10:56:34;8.00;99.90
17813;DHT22;9030;50.792;8.320;2024-03-23T10:59:03;7.90;99.90
17813;DHT22;9030;50.792;8.320;2024-03-23T11:01:30;7.60;99.90
17813;DHT22;9030;50.792;8.320;2024-03-23T11:03:56;7.20;99.90
17813;DHT22;9030;50.792;8.320;2024-03-23T11:06:35;7.00;99.90
17813;DHT22;9030;50.792;8.320;2024-03-23T11:09:02;6.80;99.90
17813;DHT22;9030;50.792;8.320;2024-03-23T11:11:29;5.70;99.90
17813;DHT22;9030;50.792;8.320;2024-03-23T11:13:59;5.20;99.90
17813;DHT22;9030;50.792;8.320;2024-03-23T11:16:26;4.90;99.90
17813;DHT22;9030;50.792;8.320;2024-03-23T11:19:33;5.00;99.90
17813;DHT22;9030;50.792;8.320;2024-03-23T11:22:01;5.30;99.90
17813;DHT22;9030;50.792;8.320;2024-03-23T11:24:28;5.40;99.90
17813;DHT22;9030;50.792;8.320;2024-03-23T11:26:55;5.50;99.90
17813;DHT22;9030;50.792;8.320;2024-03-23T11:29:25;5.60;99.90
17813;DHT22;9030;50.792;8.320;2024-03-23T11:31:52;5.70;99.90
17813;DHT22;9030;50.792;8.320;2024-03-23T11:34:19;5.80;99.90
17813;DHT22;9030;50.792;8.320;2024-03-23T11:36:46;5.70;99.90
17813;DHT22;9030;50.792;8.320;2024-03-23T11:39:13;5.50;99.90
17813;DHT22;9030;50.792;8.320;2024-03-23T11:41:47;5.60;99.90
17813;DHT22;9030;50.792;8.320;2024-03-23T11:44:18;6.30;99.90
17813;DHT22;9030;50.792;8.320;2024-03-23T11:46:44;7.30;99.90
17813;DHT22;9030;50.792;8.320;2024-03-23T11:49:22;8.30;99.90
17813;DHT22;9030;50.792;8.320;2024-03-23T11:51:48;9.00;99.90
17813;DHT22;9030;50.792;8.320;2024-03-23T11:54:15;9.40;99.90
17813;DHT22;9030;50.792;8.320;2024-03-23T11:56:41;10.10;99.90
17813;DHT22;9030;50.792;8.320;2024-03-23T11:59:31;10.20;99.90
17813;DHT22;9030;50.792;8.320;2024-03-23T12:01:57;9.20;99.90
17813;DHT22;9030;50.792;8.320;2024-03-23T12:04:27;8.30;99.90
17813;DHT22;9030;50.792;8.320;2024-03-23T12:07:09;6.60;99.90
17813;DHT22;9030;50.792;8.320;2024-03-23T12:09:35;5.00;99.90
17813;DHT22;9030;50.792;8.320;2024-03-23T12:12:07;4.50;99.90
17813;DHT22;9030;50.792;8.320;2024-03-23T12:14:34;4.60;99.90
17813;DHT22;9030;50.792;8.320;2024-03-23T12:17:10;5.00;99.90
17813;DHT22;9030;50.792;8.320;2024-03-23T12:19:37;5.70;99.90
17813;DHT22;9030;50.792;8.320;2024-03-23T12:22:03;6.00;99.90
17813;DHT22;9030;50.792;8.320;2024-03-23T12:24:31;6.20;99.90
17813;DHT22;9030;50.792;8.320;2024-03-23T12:27:00;6.50;99.90
17813;DHT22;9030;50.792;8.320;2024-03-23T12:29:28;6.90;99.90
17813;DHT22;9030;50.792;8.320;2024-03-23T12:31:55;7.20;99.90
17813;DHT22;9030;50.792;8.320;2024-03-23T12:34:22;7.20;99.90
17813;DHT22;9030;50.792;8.320;2024-03-23T12:36:49;7.20;99.90
17813;DHT22;9030;50.792;8.320;2024-03-23T12:39:15;7.40;99.90
17813;DHT22;9030;50.792;8.320;2024-03-23T12:41:41;7.50;99.90
17813;DHT22;9030;50.792;8.320;2024-03-23T12:44:08;7.60;99.90
17813;DHT22;9030;50.792;8.320;2024-03-23T12:46:37;7.60;99.90
17813;DHT22;9030;50.792;8.320;2024-03-23T12:49:05;7.10;99.90
17813;DHT22;9030;50.792;8.320;2024-03-23T12:51:31;7.10;99.90
17813;DHT22;9030;50.792;8.320;2024-03-23T12:53:58;6.70;99.90
17813;DHT22;9030;50.792;8.320;2024-03-23T12:56:23;6.70;99.90
17813;DHT22;9030;50.792;8.320;2024-03-23T12:58:50;6.50;99.90
17813;DHT22;9030;50.792;8.320;2024-03-23T13:01:16;6.60;99.90
17813;DHT22;9030;50.792;8.320;2024-03-23T13:03:46;6.70;99.90
17813;DHT22;9030;50.792;8.320;2024-03-23T13:06:14;6.50;99.90
17813;DHT22;9030;50.792;8.320;2024-03-23T13:08:39;5.90;99.90
17813;DHT22;9030;50.792;8.320;2024-03-23T13:11:07;5.30;99.90
17813;DHT22;9030;50.792;8.320;2024-03-23T13:13:34;4.80;99.90
17813;DHT22;9030;50.792;8.320;2024-03-23T13:16:00;4.70;99.90
17813;DHT22;9030;50.792;8.320;2024-03-23T13:18:27;4.60;99.90
17813;DHT22;9030;50.792;8.320;2024-03-23T13:20:54;4.40;99.90
17813;DHT22;9030;50.792;8.320;2024-03-23T13:23:21;4.20;99.90
17813;DHT22;9030;50.792;8.320;2024-03-23T13:25:50;4.20;99.90
17813;DHT22;9030;50.792;8.320;2024-03-23T13:28:18;4.40;99.90
17813;DHT22;9030;50.792;8.320;2024-03-23T13:30:50;4.70;99.90
17813;DHT22;9030;50.792;8.320;2024-03-23T13:33:16;5.00;99.90
17813;DHT22;9030;50.792;8.320;2024-03-23T13:35:49;5.40;99.90
17813;DHT22;9030;50.792;8.320;2024-03-23T13:38:15;5.00;99.90
17813;DHT22;9030;50.792;8.320;2024-03-23T13:40:53;4.80;99.90
17813;DHT22;9030;50.792;8.320;2024-03-23T13:43:19;4.70;99.90
17813;DHT22;9030;50.792;8.320;2024-03-23T13:45:46;4.60;99.90
17813;DHT22;9030;50.792;8.320;2024-03-23T13:48:12;4.90;99.90
17813;DHT22;9030;50.792;8.320;2024-03-23T13:50:39;4.90;99.90
17813;DHT22;9030;50.792;8.320;2024-03-23T13:53:05;4.70;99.90
17813;DHT22;9030;50.792;8.320;2024-03-23T13:55:31;4.90;99.90
17813;DHT22;9030;50.792;8.320;2024-03-23T13:57:58;5.00;99.90
17813;DHT22;9030;50.792;8.320;2024-03-23T14:00:25;5.10;99.90
17813;DHT22;9030;50.792;8.320;2024-03-23T14:02:50;5.20;99.90
17813;DHT22;9030;50.792;8.320;2024-03-23T14:05:17;5.10;99.90
17813;DHT22;9030;50.792;8.320;2024-03-23T14:07:43;4.70;99.90
17813;DHT22;9030;50.792;8.320;2024-03-23T14:10:10;4.40;99.90
17813;DHT22;9030;50.792;8.320;2024-03-23T14:15:52;4.10;99.90
17813;DHT22;9030;50.792;8.320;2024-03-23T14:18:19;4.30;99.90
17813;DHT22;9030;50.792;8.320;2024-03-23T14:20:45;4.50;99.90
17813;DHT22;9030;50.792;8.320;2024-03-23T14:23:11;4.60;99.90
17813;DHT22;9030;50.792;8.320;2024-03-23T14:25:37;4.70;99.90
17813;DHT22;9030;50.792;8.320;2024-03-23T14:28:04;5.00;99.90
17813;DHT22;9030;50.792;8.320;2024-03-23T14:30:30;5.00;99.90
17813;DHT22;9030;50.792;8.320;2024-03-23T14:32:58;5.00;99.90
17813;DHT22;9030;50.792;8.320;2024-03-23T14:35:24;4.90;99.90
17813;DHT22;9030;50.792;8.320;2024-03-23T14:37:52;5.00;99.90
17813;DHT22;9030;50.792;8.320;2024-03-23T14:40:18;5.10;99.90
17813;DHT22;9030;50.792;8.320;2024-03-23T14:42:45;5.10;99.90
17813;DHT22;9030;50.792;8.320;2024-03-23T14:45:11;5.30;99.90
17813;DHT22;9030;50.792;8.320;2024-03-23T14:47:37;5.50;99.90
17813;DHT22;9030;50.792;8.320;2024-03-23T14:50:05;5.40;99.90
17813;DHT22;9030;50.792;8.320;2024-03-23T14:52:33;5.70;99.90
17813;DHT22;9030;50.792;8.320;2024-03-23T14:54:59;5.80;99.90
17813;DHT22;9030;50.792;8.320;2024-03-23T14:57:26;5.90;99.90
17813;DHT22;9030;50.792;8.320;2024-03-23T14:59:54;5.90;99.90
17813;DHT22;9030;50.792;8.320;2024-03-23T15:02:21;5.80;99.90
17813;DHT22;9030;50.792;8.320;2024-03-23T15:04:46;5.70;99.90
17813;DHT22;9030;50.792;8.320;2024-03-23T15:07:14;5.80;99.90
17813;DHT22;9030;50.792;8.320;2024-03-23T15:09:40;5.90;99.90
17813;DHT22;9030;50.792;8.320;2024-03-23T15:12:07;6.00;99.90
17813;DHT22;9030;50.792;8.320;2024-03-23T15:14:33;5.90;99.90
17813;DHT22;9030;50.792;8.320;2024-03-23T15:16:59;5.90;99.90
17813;DHT22;9030;50.792;8.320;2024-03-23T15:19:25;5.70;99.90
17813;DHT22;9030;50.792;8.320;2024-03-23T15:21:52;5.50;99.90
17813;DHT22;9030;50.792;8.320;2024-03-23T15:24:19;5.50;99.90
17813;DHT22;9030;50.792;8.320;2024-03-23T15:26:45;5.50;99.90
17813;DHT22;9030;50.792;8.320;2024-03-23T15:29:11;5.60;99.90
17813;DHT22;9030;50.792;8.320;2024-03-23T15:31:42;5.90;99.90
17813;DHT22;9030;50.792;8.320;2024-03-23T15:34:08;6.10;99.90
17813;DHT22;9030;50.792;8.320;2024-03-23T15:36:35;6.40;99.90
17813;DHT22;9030;50.792;8.320;2024-03-23T15:39:02;6.30;99.90
17813;DHT22;9030;50.792;8.320;2024-03-23T15:41:31;6.20;99.90
17813;DHT22;9030;50.792;8.320;2024-03-23T15:43:57;6.10;99.90
17813;DHT22;9030;50.792;8.320;2024-03-23T15:46:24;6.00;99.90
17813;DHT22;9030;50.792;8.320;2024-03-23T15:48:50;5.90;99.90
17813;DHT22;9030;50.792;8.320;2024-03-23T15:51:17;5.80;99.90
17813;DHT22;9030;50.792;8.320;2024-03-23T15:53:43;5.50;99.90
17813;DHT22;9030;50.792;8.320;2024-03-23T15:56:10;4.10;99.90
17813;DHT22;9030;50.792;8.320;2024-03-23T15:58:37;3.60;99.90
17813;DHT22;9030;50.792;8.320;2024-03-23T16:01:04;3.50;99.90
17813;DHT22;9030;50.792;8.320;2024-03-23T16:03:31;3.40;99.90
17813;DHT22;9030;50.792;8.320;2024-03-23T16:06:00;3.40;99.90
17813;DHT22;9030;50.792;8.320;2024-03-23T16:08:26;3.40;99.90
17813;DHT22;9030;50.792;8.320;2024-03-23T16:10:53;3.50;99.90
17813;DHT22;9030;50.792;8.320;2024-03-23T16:13:20;3.50;99.90
17813;DHT22;9030;50.792;8.320;2024-03-23T16:15:54;3.50;99.90
17813;DHT22;9030;50.792;8.320;2024-03-23T16:18:20;3.40;99.90
17813;DHT22;9030;50.792;8.320;2024-03-23T16:20:52;3.40;99.90
17813;DHT22;9030;50.792;8.320;2024-03-23T16:23:18;3.30;99.90
17813;DHT22;9030;50.792;8.320;2024-03-23T16:25:47;3.30;99.90
17813;DHT22;9030;50.792;8.320;2024-03-23T16:28:14;3.20;99.90
17813;DHT22;9030;50.792;8.320;2024-03-23T16:30:41;3.10;99.90
17813;DHT22;9030;50.792;8.320;2024-03-23T16:33:08;3.00;99.90
17813;DHT22;9030;50.792;8.320;2024-03-23T16:35:35;2.70;99.90
17813;DHT22;9030;50.792;8.320;2024-03-23T16:38:00;2.50;99.90
17813;DHT22;9030;50.792;8.320;2024-03-23T16:40:27;2.40;99.90
17813;DHT22;9030;50.792;8.320;2024-03-23T16:42:52;2.40;99.90
17813;DHT22;9030;50.792;8.320;2024-03-23T16:45:19;2.30;99.90
17813;DHT22;9030;50.792;8.320;2024-03-23T16:47:45;2.20;99.90
17813;DHT22;9030;50.792;8.320;2024-03-23T16:50:14;2.30;99.90
17813;DHT22;9030;50.792;8.320;2024-03-23T16:52:39;2.40;99.90
17813;DHT22;9030;50.792;8.320;2024-03-23T16:55:06;2.30;99.90
17813;DHT22;9030;50.792;8.320;2024-03-23T16:57:32;2.30;99.90
17813;DHT22;9030;50.792;8.320;2024-03-23T16:59:59;2.30;99.90